sensor_id;sensor_type;location;lat;lon;timestamp;temperature;humidity
42097;DHT22;27754;45.414;11.084;2023-04-03T00:01:10;11.30;76.00
42097;DHT22;27754;45.414;11.084;2023-04-03T00:03:37;11.10;76.70
42097;DHT22;27754;45.414;11.084;2023-04-03T00:06:05;11.00;76.90
42097;DHT22;27754;45.414;11.084;2023-04-03T00:08:35;11.00;77.20
42097;DHT22;27754;45.414;11.084;2023-04-03T00:11:04;11.00;77.40
42097;DHT22;27754;45.414;11.084;2023-04-03T00:13:32;10.90;77.20
42097;DHT22;27754;45.414;11.084;2023-04-03T00:15:59;10.90;77.40
42097;DHT22;27754;45.414;11.084;2023-04-03T00:18:26;10.90;77.20
42097;DHT22;27754;45.414;11.084;2023-04-03T00:20:53;10.80;77.20
42097;DHT22;27754;45.414;11.084;2023-04-03T00:23:20;10.80;77.60
42097;DHT22;27754;45.414;11.084;2023-04-03T00:25:47;10.70;77.50
42097;DHT22;27754;45.414;11.084;2023-04-03T00:28:14;10.60;77.40
42097;DHT22;27754;45.414;11.084;2023-04-03T00:30:41;10.60;77.30
42097;DHT22;27754;45.414;11.084;2023-04-03T00:33:11;10.60;75.90
42097;DHT22;27754;45.414;11.084;2023-04-03T00:35:39;10.50;75.60
42097;DHT22;27754;45.414;11.084;2023-04-03T00:38:07;10.40;75.60
42097;DHT22;27754;45.414;11.084;2023-04-03T00:40:37;10.40;75.90
42097;DHT22;27754;45.414;11.084;2023-04-03T00:43:25;10.40;75.70
42097;DHT22;27754;45.414;11.084;2023-04-03T00:45:55;10.40;75.40
42097;DHT22;27754;45.414;11.084;2023-04-03T00:48:30;10.40;75.00
42097;DHT22;27754;45.414;11.084;2023-04-03T00:50:58;10.40;75.10
42097;DHT22;27754;45.414;11.084;2023-04-03T00:56:27;10.30;74.60
42097;DHT22;27754;45.414;11.084;2023-04-03T00:59:12;10.40;74.20
42097;DHT22;27754;45.414;11.084;2023-04-03T01:01:42;10.40;73.30
42097;DHT22;27754;45.414;11.084;2023-04-03T01:04:34;10.40;73.70
42097;DHT22;27754;45.414;11.084;2023-04-03T01:07:16;10.40;73.00
42097;DHT22;27754;45.414;11.084;2023-04-03T01:09:45;10.50;72.00
42097;DHT22;27754;45.414;11.084;2023-04-03T01:12:27;10.50;73.40
42097;DHT22;27754;45.414;11.084;2023-04-03T01:14:57;10.40;73.60
42097;DHT22;27754;45.414;11.084;2023-04-03T01:17:38;10.40;74.20
42097;DHT22;27754;45.414;11.084;2023-04-03T01:28:10;10.20;77.10
42097;DHT22;27754;45.414;11.084;2023-04-03T01:33:27;10.00;78.00
42097;DHT22;27754;45.414;11.084;2023-04-03T01:35:54;10.00;78.40
42097;DHT22;27754;45.414;11.084;2023-04-03T01:38:22;10.00;78.70
42097;DHT22;27754;45.414;11.084;2023-04-03T01:40:49;9.90;78.80
42097;DHT22;27754;45.414;11.084;2023-04-03T01:43:17;9.90;79.00
42097;DHT22;27754;45.414;11.084;2023-04-03T01:45:43;9.90;79.30
42097;DHT22;27754;45.414;11.084;2023-04-03T01:48:11;9.90;79.50
42097;DHT22;27754;45.414;11.084;2023-04-03T01:50:38;9.90;80.00
42097;DHT22;27754;45.414;11.084;2023-04-03T01:53:05;9.80;80.20
42097;DHT22;27754;45.414;11.084;2023-04-03T01:55:32;9.80;80.70
42097;DHT22;27754;45.414;11.084;2023-04-03T01:57:59;9.70;80.70
42097;DHT22;27754;45.414;11.084;2023-04-03T02:00:26;9.70;80.70
42097;DHT22;27754;45.414;11.084;2023-04-03T02:02:53;9.70;79.90
42097;DHT22;27754;45.414;11.084;2023-04-03T02:05:20;9.80;79.50
42097;DHT22;27754;45.414;11.084;2023-04-03T02:07:47;9.80;78.40
42097;DHT22;27754;45.414;11.084;2023-04-03T02:10:14;9.80;78.20
42097;DHT22;27754;45.414;11.084;2023-04-03T02:12:41;9.80;78.20
42097;DHT22;27754;45.414;11.084;2023-04-03T02:15:08;9.90;77.70
42097;DHT22;27754;45.414;11.084;2023-04-03T02:17:36;9.90;76.00
42097;DHT22;27754;45.414;11.084;2023-04-03T02:20:04;10.10;75.10
42097;DHT22;27754;45.414;11.084;2023-04-03T02:22:32;10.30;74.00
42097;DHT22;27754;45.414;11.084;2023-04-03T02:24:59;10.40;73.30
42097;DHT22;27754;45.414;11.084;2023-04-03T02:27:27;10.40;73.60
42097;DHT22;27754;45.414;11.084;2023-04-03T02:29:54;10.30;74.70
42097;DHT22;27754;45.414;11.084;2023-04-03T02:32:21;10.30;75.10
42097;DHT22;27754;45.414;11.084;2023-04-03T02:34:48;10.30;75.20
42097;DHT22;27754;45.414;11.084;2023-04-03T02:37:15;10.20;74.80
42097;DHT22;27754;45.414;11.084;2023-04-03T02:39:44;10.20;75.70
42097;DHT22;27754;45.414;11.084;2023-04-03T02:42:12;10.10;75.80
42097;DHT22;27754;45.414;11.084;2023-04-03T02:44:39;9.90;76.40
42097;DHT22;27754;45.414;11.084;2023-04-03T02:47:06;9.90;76.10
42097;DHT22;27754;45.414;11.084;2023-04-03T02:49:33;10.10;75.30
42097;DHT22;27754;45.414;11.084;2023-04-03T02:51:59;10.20;74.50
42097;DHT22;27754;45.414;11.084;2023-04-03T02:54:27;10.20;74.20
42097;DHT22;27754;45.414;11.084;2023-04-03T02:57:00;10.30;74.50
42097;DHT22;27754;45.414;11.084;2023-04-03T02:59:27;10.30;75.40
42097;DHT22;27754;45.414;11.084;2023-04-03T03:01:54;10.30;75.00
42097;DHT22;27754;45.414;11.084;2023-04-03T03:04:22;10.40;74.70
42097;DHT22;27754;45.414;11.084;2023-04-03T03:06:49;10.40;74.60
42097;DHT22;27754;45.414;11.084;2023-04-03T03:09:17;10.40;73.90
42097;DHT22;27754;45.414;11.084;2023-04-03T03:11:44;10.70;73.10
42097;DHT22;27754;45.414;11.084;2023-04-03T03:14:11;10.70;73.10
42097;DHT22;27754;45.414;11.084;2023-04-03T03:16:38;10.90;72.90
42097;DHT22;27754;45.414;11.084;2023-04-03T03:19:05;10.90;72.70
42097;DHT22;27754;45.414;11.084;2023-04-03T03:21:33;10.90;72.60
42097;DHT22;27754;45.414;11.084;2023-04-03T03:24:01;11.00;72.20
42097;DHT22;27754;45.414;11.084;2023-04-03T03:26:28;10.90;72.70
42097;DHT22;27754;45.414;11.084;2023-04-03T03:28:55;10.80;73.30
42097;DHT22;27754;45.414;11.084;2023-04-03T03:31:22;10.80;73.00
42097;DHT22;27754;45.414;11.084;2023-04-03T03:33:49;10.80;73.30
42097;DHT22;27754;45.414;11.084;2023-04-03T03:36:16;10.80;73.50
42097;DHT22;27754;45.414;11.084;2023-04-03T03:38:43;10.70;73.60
42097;DHT22;27754;45.414;11.084;2023-04-03T03:41:10;10.90;72.50
42097;DHT22;27754;45.414;11.084;2023-04-03T03:43:38;11.20;71.50
42097;DHT22;27754;45.414;11.084;2023-04-03T03:46:06;11.40;70.70
42097;DHT22;27754;45.414;11.084;2023-04-03T03:48:33;11.50;70.30
42097;DHT22;27754;45.414;11.084;2023-04-03T03:51:00;11.50;70.60
42097;DHT22;27754;45.414;11.084;2023-04-03T03:53:31;11.50;70.70
42097;DHT22;27754;45.414;11.084;2023-04-03T03:56:03;11.50;70.70
42097;DHT22;27754;45.414;11.084;2023-04-03T03:58:32;11.40;71.00
42097;DHT22;27754;45.414;11.084;2023-04-03T04:01:04;11.30;71.40
42097;DHT22;27754;45.414;11.084;2023-04-03T04:03:34;11.20;71.80
42097;DHT22;27754;45.414;11.084;2023-04-03T04:06:01;11.20;72.10
42097;DHT22;27754;45.414;11.084;2023-04-03T04:08:28;11.20;72.20
42097;DHT22;27754;45.414;11.084;2023-04-03T04:10:55;11.20;72.10
42097;DHT22;27754;45.414;11.084;2023-04-03T04:13:23;11.20;71.90
42097;DHT22;27754;45.414;11.084;2023-04-03T04:15:50;11.20;72.10
42097;DHT22;27754;45.414;11.084;2023-04-03T04:18:17;11.20;72.30
42097;DHT22;27754;45.414;11.084;2023-04-03T04:20:48;11.30;72.30
42097;DHT22;27754;45.414;11.084;2023-04-03T04:23:17;11.20;72.40
42097;DHT22;27754;45.414;11.084;2023-04-03T04:25:47;11.30;72.30
42097;DHT22;27754;45.414;11.084;2023-04-03T04:28:15;11.40;71.90
42097;DHT22;27754;45.414;11.084;2023-04-03T04:30:42;11.50;71.80
42097;DHT22;27754;45.414;11.084;2023-04-03T04:33:10;11.40;71.60
42097;DHT22;27754;45.414;11.084;2023-04-03T04:35:38;11.50;71.40
42097;DHT22;27754;45.414;11.084;2023-04-03T04:38:05;11.60;71.40
42097;DHT22;27754;45.414;11.084;2023-04-03T04:40:33;11.60;71.30
42097;DHT22;27754;45.414;11.084;2023-04-03T04:43:00;11.50;71.50
42097;DHT22;27754;45.414;11.084;2023-04-03T04:45:27;11.60;71.40
42097;DHT22;27754;45.414;11.084;2023-04-03T04:47:57;11.60;71.50
42097;DHT22;27754;45.414;11.084;2023-04-03T04:50:25;11.50;71.20
42097;DHT22;27754;45.414;11.084;2023-04-03T04:52:53;11.60;71.40
42097;DHT22;27754;45.414;11.084;2023-04-03T04:55:20;11.60;71.30
42097;DHT22;27754;45.414;11.084;2023-04-03T04:57:49;11.60;71.20
42097;DHT22;27754;45.414;11.084;2023-04-03T05:00:18;11.60;70.80
42097;DHT22;27754;45.414;11.084;2023-04-03T05:02:45;11.70;70.60
42097;DHT22;27754;45.414;11.084;2023-04-03T05:05:12;11.70;70.70
42097;DHT22;27754;45.414;11.084;2023-04-03T05:07:39;11.80;70.50
42097;DHT22;27754;45.414;11.084;2023-04-03T05:10:07;11.90;70.00
42097;DHT22;27754;45.414;11.084;2023-04-03T05:12:35;11.80;70.40
42097;DHT22;27754;45.414;11.084;2023-04-03T05:15:04;11.90;70.10
42097;DHT22;27754;45.414;11.084;2023-04-03T05:17:32;11.90;70.20
42097;DHT22;27754;45.414;11.084;2023-04-03T05:20:00;11.80;70.20
42097;DHT22;27754;45.414;11.084;2023-04-03T05:22:28;11.90;70.00
42097;DHT22;27754;45.414;11.084;2023-04-03T05:24:59;11.90;70.10
42097;DHT22;27754;45.414;11.084;2023-04-03T05:27:27;11.90;70.10
42097;DHT22;27754;45.414;11.084;2023-04-03T05:29:58;12.00;70.30
42097;DHT22;27754;45.414;11.084;2023-04-03T05:32:26;12.00;70.20
42097;DHT22;27754;45.414;11.084;2023-04-03T05:35:09;12.00;70.30
42097;DHT22;27754;45.414;11.084;2023-04-03T05:37:37;12.10;70.10
42097;DHT22;27754;45.414;11.084;2023-04-03T05:40:05;12.10;70.30
42097;DHT22;27754;45.414;11.084;2023-04-03T05:42:33;12.10;70.40
42097;DHT22;27754;45.414;11.084;2023-04-03T05:45:01;12.20;70.20
42097;DHT22;27754;45.414;11.084;2023-04-03T05:47:28;12.20;70.10
42097;DHT22;27754;45.414;11.084;2023-04-03T05:49:55;12.30;70.60
42097;DHT22;27754;45.414;11.084;2023-04-03T05:52:30;12.30;70.40
42097;DHT22;27754;45.414;11.084;2023-04-03T05:54:58;12.40;70.80
42097;DHT22;27754;45.414;11.084;2023-04-03T05:57:27;12.40;70.70
42097;DHT22;27754;45.414;11.084;2023-04-03T05:59:55;12.40;70.60
42097;DHT22;27754;45.414;11.084;2023-04-03T06:02:23;12.50;70.60
42097;DHT22;27754;45.414;11.084;2023-04-03T06:04:52;12.60;70.20
42097;DHT22;27754;45.414;11.084;2023-04-03T06:07:21;12.70;70.20
42097;DHT22;27754;45.414;11.084;2023-04-03T06:09:50;12.80;70.80
42097;DHT22;27754;45.414;11.084;2023-04-03T06:12:18;12.90;70.20
42097;DHT22;27754;45.414;11.084;2023-04-03T06:14:45;13.00;70.50
42097;DHT22;27754;45.414;11.084;2023-04-03T06:17:17;13.30;69.90
42097;DHT22;27754;45.414;11.084;2023-04-03T06:19:45;13.40;69.80
42097;DHT22;27754;45.414;11.084;2023-04-03T06:22:12;13.50;69.60
42097;DHT22;27754;45.414;11.084;2023-04-03T06:24:39;13.70;69.40
42097;DHT22;27754;45.414;11.084;2023-04-03T06:27:07;13.80;68.70
42097;DHT22;27754;45.414;11.084;2023-04-03T06:29:33;13.80;68.80
42097;DHT22;27754;45.414;11.084;2023-04-03T06:32:00;13.90;69.20
42097;DHT22;27754;45.414;11.084;2023-04-03T06:34:27;13.90;68.20
42097;DHT22;27754;45.414;11.084;2023-04-03T06:36:54;13.90;68.70
42097;DHT22;27754;45.414;11.084;2023-04-03T06:39:22;13.90;69.00
42097;DHT22;27754;45.414;11.084;2023-04-03T06:41:51;13.90;68.50
42097;DHT22;27754;45.414;11.084;2023-04-03T06:44:27;13.90;68.60
42097;DHT22;27754;45.414;11.084;2023-04-03T06:46:53;14.10;68.40
42097;DHT22;27754;45.414;11.084;2023-04-03T06:49:21;14.10;67.50
42097;DHT22;27754;45.414;11.084;2023-04-03T06:51:48;14.10;67.80
42097;DHT22;27754;45.414;11.084;2023-04-03T06:54:15;14.00;68.00
42097;DHT22;27754;45.414;11.084;2023-04-03T06:56:42;14.00;67.80
42097;DHT22;27754;45.414;11.084;2023-04-03T06:59:10;14.20;67.60
42097;DHT22;27754;45.414;11.084;2023-04-03T07:01:37;14.20;67.30
42097;DHT22;27754;45.414;11.084;2023-04-03T07:04:04;14.30;67.30
42097;DHT22;27754;45.414;11.084;2023-04-03T07:06:31;14.30;65.40
42097;DHT22;27754;45.414;11.084;2023-04-03T07:09:00;14.20;65.50
42097;DHT22;27754;45.414;11.084;2023-04-03T07:11:27;14.10;66.10
42097;DHT22;27754;45.414;11.084;2023-04-03T07:13:54;14.10;65.40
42097;DHT22;27754;45.414;11.084;2023-04-03T07:16:21;14.30;65.80
42097;DHT22;27754;45.414;11.084;2023-04-03T07:18:48;14.10;65.80
42097;DHT22;27754;45.414;11.084;2023-04-03T07:21:15;14.20;65.90
42097;DHT22;27754;45.414;11.084;2023-04-03T07:23:42;14.20;66.30
42097;DHT22;27754;45.414;11.084;2023-04-03T07:26:09;14.00;66.40
42097;DHT22;27754;45.414;11.084;2023-04-03T07:28:36;14.20;66.80
42097;DHT22;27754;45.414;11.084;2023-04-03T07:31:10;14.60;66.50
42097;DHT22;27754;45.414;11.084;2023-04-03T07:33:39;14.60;66.30
42097;DHT22;27754;45.414;11.084;2023-04-03T07:36:07;14.60;65.50
42097;DHT22;27754;45.414;11.084;2023-04-03T07:38:35;14.40;65.70
42097;DHT22;27754;45.414;11.084;2023-04-03T07:41:03;14.40;66.50
42097;DHT22;27754;45.414;11.084;2023-04-03T07:43:31;14.50;66.40
42097;DHT22;27754;45.414;11.084;2023-04-03T07:45:58;14.60;66.50
42097;DHT22;27754;45.414;11.084;2023-04-03T07:48:26;14.40;65.60
42097;DHT22;27754;45.414;11.084;2023-04-03T07:50:53;14.40;66.60
42097;DHT22;27754;45.414;11.084;2023-04-03T07:53:19;14.40;66.10
42097;DHT22;27754;45.414;11.084;2023-04-03T07:55:48;14.70;66.10
42097;DHT22;27754;45.414;11.084;2023-04-03T07:58:18;14.70;64.90
42097;DHT22;27754;45.414;11.084;2023-04-03T08:00:45;14.90;65.00
42097;DHT22;27754;45.414;11.084;2023-04-03T08:03:14;14.90;63.70
42097;DHT22;27754;45.414;11.084;2023-04-03T08:05:47;14.90;63.70
42097;DHT22;27754;45.414;11.084;2023-04-03T08:08:17;14.90;63.10
42097;DHT22;27754;45.414;11.084;2023-04-03T08:10:51;15.00;63.40
42097;DHT22;27754;45.414;11.084;2023-04-03T08:13:21;14.90;63.00
42097;DHT22;27754;45.414;11.084;2023-04-03T08:15:49;14.60;63.00
42097;DHT22;27754;45.414;11.084;2023-04-03T08:18:16;14.80;63.30
42097;DHT22;27754;45.414;11.084;2023-04-03T08:20:43;14.90;62.50
42097;DHT22;27754;45.414;11.084;2023-04-03T08:23:10;15.00;62.80
42097;DHT22;27754;45.414;11.084;2023-04-03T08:25:41;15.00;62.70
42097;DHT22;27754;45.414;11.084;2023-04-03T08:28:12;14.80;62.90
42097;DHT22;27754;45.414;11.084;2023-04-03T08:30:40;14.60;63.30
42097;DHT22;27754;45.414;11.084;2023-04-03T08:33:09;14.90;62.70
42097;DHT22;27754;45.414;11.084;2023-04-03T08:35:41;15.00;63.00
42097;DHT22;27754;45.414;11.084;2023-04-03T08:38:09;15.00;62.70
42097;DHT22;27754;45.414;11.084;2023-04-03T08:40:37;14.90;62.40
42097;DHT22;27754;45.414;11.084;2023-04-03T08:45:53;14.80;63.80
42097;DHT22;27754;45.414;11.084;2023-04-03T08:48:31;14.90;63.30
42097;DHT22;27754;45.414;11.084;2023-04-03T08:51:03;14.90;63.50
42097;DHT22;27754;45.414;11.084;2023-04-03T08:53:40;14.90;62.70
42097;DHT22;27754;45.414;11.084;2023-04-03T08:56:10;14.90;64.00
42097;DHT22;27754;45.414;11.084;2023-04-03T08:58:52;14.90;62.60
42097;DHT22;27754;45.414;11.084;2023-04-03T09:03:53;14.90;62.00
42097;DHT22;27754;45.414;11.084;2023-04-03T09:06:22;15.00;61.60
42097;DHT22;27754;45.414;11.084;2023-04-03T09:14:21;14.80;61.00
42097;DHT22;27754;45.414;11.084;2023-04-03T09:17:00;15.00;60.70
42097;DHT22;27754;45.414;11.084;2023-04-03T09:22:07;15.10;60.00
42097;DHT22;27754;45.414;11.084;2023-04-03T09:24:38;15.20;60.40
42097;DHT22;27754;45.414;11.084;2023-04-03T09:27:09;15.30;59.70
42097;DHT22;27754;45.414;11.084;2023-04-03T09:29:40;15.30;59.90
42097;DHT22;27754;45.414;11.084;2023-04-03T09:32:21;15.20;60.00
42097;DHT22;27754;45.414;11.084;2023-04-03T09:34:49;15.10;60.60
42097;DHT22;27754;45.414;11.084;2023-04-03T09:37:38;15.40;60.10
42097;DHT22;27754;45.414;11.084;2023-04-03T09:40:31;15.70;59.30
42097;DHT22;27754;45.414;11.084;2023-04-03T09:43:23;15.70;58.60
42097;DHT22;27754;45.414;11.084;2023-04-03T09:45:48;15.80;58.60
42097;DHT22;27754;45.414;11.084;2023-04-03T09:48:18;15.00;58.80
42097;DHT22;27754;45.414;11.084;2023-04-03T09:50:57;14.90;59.70
42097;DHT22;27754;45.414;11.084;2023-04-03T09:53:27;15.20;59.70
42097;DHT22;27754;45.414;11.084;2023-04-03T09:55:54;15.40;58.50
42097;DHT22;27754;45.414;11.084;2023-04-03T09:58:38;15.40;58.80
42097;DHT22;27754;45.414;11.084;2023-04-03T10:06:42;15.00;59.70
42097;DHT22;27754;45.414;11.084;2023-04-03T10:09:22;15.30;58.10
42097;DHT22;27754;45.414;11.084;2023-04-03T10:12:11;15.40;58.60
42097;DHT22;27754;45.414;11.084;2023-04-03T10:14:53;15.50;58.50
42097;DHT22;27754;45.414;11.084;2023-04-03T10:20:40;15.70;58.60
42097;DHT22;27754;45.414;11.084;2023-04-03T10:23:31;15.80;57.90
42097;DHT22;27754;45.414;11.084;2023-04-03T10:32:01;16.00;56.00
42097;DHT22;27754;45.414;11.084;2023-04-03T10:34:37;16.30;55.80
42097;DHT22;27754;45.414;11.084;2023-04-03T10:37:24;16.60;55.10
42097;DHT22;27754;45.414;11.084;2023-04-03T10:40:09;16.50;54.20
42097;DHT22;27754;45.414;11.084;2023-04-03T10:46:00;16.20;54.70
42097;DHT22;27754;45.414;11.084;2023-04-03T10:51:29;15.80;56.60
42097;DHT22;27754;45.414;11.084;2023-04-03T10:54:25;15.30;56.80
42097;DHT22;27754;45.414;11.084;2023-04-03T10:59:53;15.60;57.50
42097;DHT22;27754;45.414;11.084;2023-04-03T11:02:58;15.90;57.10
42097;DHT22;27754;45.414;11.084;2023-04-03T11:05:43;16.20;55.60
42097;DHT22;27754;45.414;11.084;2023-04-03T11:10:57;16.30;56.40
42097;DHT22;27754;45.414;11.084;2023-04-03T11:13:39;16.20;55.40
42097;DHT22;27754;45.414;11.084;2023-04-03T11:16:07;16.80;55.70
42097;DHT22;27754;45.414;11.084;2023-04-03T11:18:40;16.80;53.40
42097;DHT22;27754;45.414;11.084;2023-04-03T11:21:12;16.80;53.10
42097;DHT22;27754;45.414;11.084;2023-04-03T11:23:45;16.70;53.80
42097;DHT22;27754;45.414;11.084;2023-04-03T11:26:18;16.70;53.40
42097;DHT22;27754;45.414;11.084;2023-04-03T11:28:45;16.40;53.70
42097;DHT22;27754;45.414;11.084;2023-04-03T11:36:49;16.90;53.40
42097;DHT22;27754;45.414;11.084;2023-04-03T11:39:37;16.80;53.30
42097;DHT22;27754;45.414;11.084;2023-04-03T11:42:34;16.70;53.30
42097;DHT22;27754;45.414;11.084;2023-04-03T12:01:05;16.60;52.50
42097;DHT22;27754;45.414;11.084;2023-04-03T12:08:48;16.40;53.30
42097;DHT22;27754;45.414;11.084;2023-04-03T12:11:31;16.10;53.30
42097;DHT22;27754;45.414;11.084;2023-04-03T12:18:57;15.70;54.50
42097;DHT22;27754;45.414;11.084;2023-04-03T12:27:02;15.50;55.10
42097;DHT22;27754;45.414;11.084;2023-04-03T12:29:43;15.60;54.60
42097;DHT22;27754;45.414;11.084;2023-04-03T12:32:36;15.60;54.90
42097;DHT22;27754;45.414;11.084;2023-04-03T12:40:41;16.20;54.00
42097;DHT22;27754;45.414;11.084;2023-04-03T12:48:15;16.70;53.30
42097;DHT22;27754;45.414;11.084;2023-04-03T12:50:45;17.10;52.70
42097;DHT22;27754;45.414;11.084;2023-04-03T12:53:19;17.30;52.40
42097;DHT22;27754;45.414;11.084;2023-04-03T12:55:51;17.00;51.60
42097;DHT22;27754;45.414;11.084;2023-04-03T12:58:25;16.80;52.30
42097;DHT22;27754;45.414;11.084;2023-04-03T13:01:23;16.40;53.40
42097;DHT22;27754;45.414;11.084;2023-04-03T13:03:55;16.40;52.80
42097;DHT22;27754;45.414;11.084;2023-04-03T13:06:27;16.50;53.20
42097;DHT22;27754;45.414;11.084;2023-04-03T13:08:59;16.60;52.90
42097;DHT22;27754;45.414;11.084;2023-04-03T13:11:32;16.40;53.00
42097;DHT22;27754;45.414;11.084;2023-04-03T13:14:05;16.40;54.10
42097;DHT22;27754;45.414;11.084;2023-04-03T13:16:33;16.30;53.70
42097;DHT22;27754;45.414;11.084;2023-04-03T13:19:00;16.30;53.10
42097;DHT22;27754;45.414;11.084;2023-04-03T13:21:32;16.40;53.50
42097;DHT22;27754;45.414;11.084;2023-04-03T13:24:02;16.40;53.40
42097;DHT22;27754;45.414;11.084;2023-04-03T13:26:41;16.10;53.50
42097;DHT22;27754;45.414;11.084;2023-04-03T13:29:25;15.90;54.80
42097;DHT22;27754;45.414;11.084;2023-04-03T13:31:58;16.00;54.70
42097;DHT22;27754;45.414;11.084;2023-04-03T13:34:48;16.00;54.80
42097;DHT22;27754;45.414;11.084;2023-04-03T13:37:30;16.00;54.20
42097;DHT22;27754;45.414;11.084;2023-04-03T13:40:09;15.80;54.90
42097;DHT22;27754;45.414;11.084;2023-04-03T13:42:39;15.90;56.40
42097;DHT22;27754;45.414;11.084;2023-04-03T13:47:45;15.70;56.20
42097;DHT22;27754;45.414;11.084;2023-04-03T13:50:21;15.60;55.40
42097;DHT22;27754;45.414;11.084;2023-04-03T13:55:30;15.50;56.10
42097;DHT22;27754;45.414;11.084;2023-04-03T13:58:02;15.50;58.00
42097;DHT22;27754;45.414;11.084;2023-04-03T14:02:56;15.60;56.40
42097;DHT22;27754;45.414;11.084;2023-04-03T14:05:24;15.50;55.90
42097;DHT22;27754;45.414;11.084;2023-04-03T14:07:54;15.40;55.50
42097;DHT22;27754;45.414;11.084;2023-04-03T14:10:22;15.40;55.50
42097;DHT22;27754;45.414;11.084;2023-04-03T14:12:49;15.50;55.50
42097;DHT22;27754;45.414;11.084;2023-04-03T14:15:24;15.40;54.80
42097;DHT22;27754;45.414;11.084;2023-04-03T14:17:53;15.30;56.20
42097;DHT22;27754;45.414;11.084;2023-04-03T14:20:24;15.40;55.70
42097;DHT22;27754;45.414;11.084;2023-04-03T14:22:52;15.50;55.70
42097;DHT22;27754;45.414;11.084;2023-04-03T14:25:21;15.50;55.20
42097;DHT22;27754;45.414;11.084;2023-04-03T14:27:53;15.60;54.70
42097;DHT22;27754;45.414;11.084;2023-04-03T14:30:33;15.60;55.20
42097;DHT22;27754;45.414;11.084;2023-04-03T14:33:00;15.60;55.10
42097;DHT22;27754;45.414;11.084;2023-04-03T14:35:28;15.80;54.60
42097;DHT22;27754;45.414;11.084;2023-04-03T14:37:55;15.80;54.70
42097;DHT22;27754;45.414;11.084;2023-04-03T14:40:25;15.80;54.50
42097;DHT22;27754;45.414;11.084;2023-04-03T14:42:53;15.70;54.40
42097;DHT22;27754;45.414;11.084;2023-04-03T14:45:23;15.80;54.00
42097;DHT22;27754;45.414;11.084;2023-04-03T14:47:52;15.80;54.30
42097;DHT22;27754;45.414;11.084;2023-04-03T14:50:25;15.80;54.50
42097;DHT22;27754;45.414;11.084;2023-04-03T14:52:55;15.60;54.20
42097;DHT22;27754;45.414;11.084;2023-04-03T14:55:24;15.60;55.20
42097;DHT22;27754;45.414;11.084;2023-04-03T14:57:52;15.70;54.20
42097;DHT22;27754;45.414;11.084;2023-04-03T15:00:21;15.80;53.30
42097;DHT22;27754;45.414;11.084;2023-04-03T15:02:49;15.80;53.10
42097;DHT22;27754;45.414;11.084;2023-04-03T15:05:16;15.70;53.00
42097;DHT22;27754;45.414;11.084;2023-04-03T15:07:48;15.60;53.60
42097;DHT22;27754;45.414;11.084;2023-04-03T15:10:19;15.70;53.90
42097;DHT22;27754;45.414;11.084;2023-04-03T15:12:47;15.80;54.10
42097;DHT22;27754;45.414;11.084;2023-04-03T15:15:16;15.80;53.50
42097;DHT22;27754;45.414;11.084;2023-04-03T15:17:44;15.60;52.80
42097;DHT22;27754;45.414;11.084;2023-04-03T15:20:14;15.40;53.00
42097;DHT22;27754;45.414;11.084;2023-04-03T15:22:42;15.40;52.90
42097;DHT22;27754;45.414;11.084;2023-04-03T15:25:09;15.30;53.40
42097;DHT22;27754;45.414;11.084;2023-04-03T15:27:39;15.30;54.10
42097;DHT22;27754;45.414;11.084;2023-04-03T15:30:11;15.30;53.70
42097;DHT22;27754;45.414;11.084;2023-04-03T15:32:38;15.30;53.40
42097;DHT22;27754;45.414;11.084;2023-04-03T15:35:05;15.40;54.30
42097;DHT22;27754;45.414;11.084;2023-04-03T15:37:32;15.30;53.70
42097;DHT22;27754;45.414;11.084;2023-04-03T15:39:59;15.30;53.50
42097;DHT22;27754;45.414;11.084;2023-04-03T15:42:26;15.30;53.30
42097;DHT22;27754;45.414;11.084;2023-04-03T15:44:53;15.20;53.10
42097;DHT22;27754;45.414;11.084;2023-04-03T15:47:20;15.30;52.80
42097;DHT22;27754;45.414;11.084;2023-04-03T15:49:47;15.30;53.10
42097;DHT22;27754;45.414;11.084;2023-04-03T15:52:14;15.30;52.80
42097;DHT22;27754;45.414;11.084;2023-04-03T15:54:41;15.40;52.20
42097;DHT22;27754;45.414;11.084;2023-04-03T15:57:08;15.30;51.80
42097;DHT22;27754;45.414;11.084;2023-04-03T15:59:35;15.30;52.90
42097;DHT22;27754;45.414;11.084;2023-04-03T16:02:04;15.30;52.20
42097;DHT22;27754;45.414;11.084;2023-04-03T16:04:33;15.30;52.70
42097;DHT22;27754;45.414;11.084;2023-04-03T16:07:04;15.20;52.80
42097;DHT22;27754;45.414;11.084;2023-04-03T16:09:32;15.20;52.40
42097;DHT22;27754;45.414;11.084;2023-04-03T16:11:59;15.10;52.30
42097;DHT22;27754;45.414;11.084;2023-04-03T16:14:27;15.10;51.80
42097;DHT22;27754;45.414;11.084;2023-04-03T16:16:57;15.00;51.50
42097;DHT22;27754;45.414;11.084;2023-04-03T16:19:25;14.90;51.80
42097;DHT22;27754;45.414;11.084;2023-04-03T16:21:53;15.00;51.30
42097;DHT22;27754;45.414;11.084;2023-04-03T16:24:21;14.90;51.10
42097;DHT22;27754;45.414;11.084;2023-04-03T16:26:48;14.90;51.30
42097;DHT22;27754;45.414;11.084;2023-04-03T16:29:15;14.80;51.40
42097;DHT22;27754;45.414;11.084;2023-04-03T16:31:42;14.80;51.10
42097;DHT22;27754;45.414;11.084;2023-04-03T16:34:09;14.80;51.10
42097;DHT22;27754;45.414;11.084;2023-04-03T16:36:36;14.70;51.20
42097;DHT22;27754;45.414;11.084;2023-04-03T16:39:04;14.60;51.40
42097;DHT22;27754;45.414;11.084;2023-04-03T16:41:31;14.40;51.50
42097;DHT22;27754;45.414;11.084;2023-04-03T16:43:58;14.30;52.20
42097;DHT22;27754;45.414;11.084;2023-04-03T16:46:25;14.30;52.30
42097;DHT22;27754;45.414;11.084;2023-04-03T16:48:52;14.20;52.30
42097;DHT22;27754;45.414;11.084;2023-04-03T16:51:19;14.10;52.10
42097;DHT22;27754;45.414;11.084;2023-04-03T16:53:47;14.10;52.40
42097;DHT22;27754;45.414;11.084;2023-04-03T16:56:14;14.00;52.40
42097;DHT22;27754;45.414;11.084;2023-04-03T16:58:41;14.00;52.70
42097;DHT22;27754;45.414;11.084;2023-04-03T17:01:18;13.90;52.80
42097;DHT22;27754;45.414;11.084;2023-04-03T17:03:45;13.90;53.00
42097;DHT22;27754;45.414;11.084;2023-04-03T17:06:16;13.90;53.10
42097;DHT22;27754;45.414;11.084;2023-04-03T17:08:46;13.80;52.60
42097;DHT22;27754;45.414;11.084;2023-04-03T17:11:26;13.70;52.90
42097;DHT22;27754;45.414;11.084;2023-04-03T17:13:53;13.70;53.40
42097;DHT22;27754;45.414;11.084;2023-04-03T17:16:20;13.70;53.40
42097;DHT22;27754;45.414;11.084;2023-04-03T17:18:48;13.60;53.30
42097;DHT22;27754;45.414;11.084;2023-04-03T17:21:16;13.50;52.50
42097;DHT22;27754;45.414;11.084;2023-04-03T17:23:46;13.50;52.30
42097;DHT22;27754;45.414;11.084;2023-04-03T17:26:13;13.40;51.60